Time;durP1;ratioP1;P1;durP2;ratioP2;P2;SDS_P1;SDS_P2;PMS_P1;PMS_P2;Temp;Humidity;BMP_temperature;BMP_pressure;BME280_temperature;BME280_humidity;BME280_pressure;Samples;Min_cycle;Max_cycle;Signal;HPM_P1;HPM_P2
2022/08/27 00:01:47;;;;;;;10.18;3.55;;;;;;;20.68;70.59;98651.91;4499989;31;34284;-74
2022/08/27 00:04:15;;;;;;;7.62;3.72;;;;;;;20.45;69.92;98644.47;4498028;31;34956;-74
2022/08/27 00:06:43;;;;;;;5.12;2.85;;;;;;;20.92;68.05;98658.28;4487270;31;33642;-74
2022/08/27 00:09:13;;;;;;;7.72;3.72;;;;;;;21.07;68.89;98645.88;4501035;31;34519;-74
2022/08/27 00:11:43;;;;;;;7.93;4.07;;;;;;;21.13;68.79;98649.91;4502069;31;33911;-74
2022/08/27 00:14:12;;;;;;;9.13;3.65;;;;;;;20.99;69.33;98650.81;4501019;31;34973;-74
2022/08/27 00:16:41;;;;;;;9.60;3.62;;;;;;;20.85;68.61;98651.69;4500095;31;35281;-74
2022/08/27 00:19:10;;;;;;;8.15;3.60;;;;;;;20.88;68.37;98648.88;4486488;31;32945;-73
2022/08/27 00:21:38;;;;;;;9.05;4.18;;;;;;;20.84;69.02;98655.28;4499988;31;33906;-74
2022/08/27 00:24:06;;;;;;;9.07;4.78;;;;;;;20.75;69.61;98655.88;4501132;31;35746;-74
2022/08/27 00:26:35;;;;;;;7.85;3.78;;;;;;;20.59;70.20;98651.50;4500719;31;35212;-73
2022/08/27 00:29:09;;;;;;;8.82;3.20;;;;;;;20.73;69.26;98652.47;4499244;31;33703;-74
2022/08/27 00:31:37;;;;;;;6.25;3.42;;;;;;;20.62;68.27;98661.94;4500906;31;34628;-74
2022/08/27 00:34:05;;;;;;;6.65;3.85;;;;;;;20.72;70.12;98661.34;4499538;31;34882;-74
2022/08/27 00:36:34;;;;;;;12.25;3.90;;;;;;;20.57;69.27;98658.69;4499707;31;34485;-74
2022/08/27 00:39:03;;;;;;;5.50;3.35;;;;;;;20.68;68.02;98659.84;4501049;31;34581;-74
2022/08/27 00:41:32;;;;;;;4.97;3.28;;;;;;;20.55;66.88;98660.59;4500713;31;34961;-74
2022/08/27 00:44:00;;;;;;;8.70;3.97;;;;;;;20.45;67.98;98660.34;4499184;31;35038;-74
2022/08/27 00:46:56;;;;;;;7.70;4.03;;;;;;;19.87;70.98;98662.09;4501818;31;35415;-73
2022/08/27 00:49:41;;;;;;;6.32;3.67;;;;;;;20.46;69.04;98661.19;4497019;31;34509;-74
2022/08/27 00:52:17;;;;;;;8.20;3.53;;;;;;;20.23;71.32;98654.66;4500774;31;34119;-74
2022/08/27 00:54:45;;;;;;;7.03;3.83;;;;;;;20.36;70.62;98660.03;4484772;32;34264;-74
2022/08/27 00:57:14;;;;;;;9.73;3.60;;;;;;;20.34;69.70;98661.94;4471936;32;32966;-74
2022/08/27 00:59:42;;;;;;;11.63;4.00;;;;;;;20.22;70.57;98655.59;4499395;31;33758;-74
2022/08/27 01:02:19;;;;;;;10.25;3.70;;;;;;;20.17;70.76;98661.19;4501652;31;33937;-74
2022/08/27 01:04:57;;;;;;;7.85;4.62;;;;;;;20.15;70.16;98665.69;4500110;31;35085;-74
2022/08/27 01:07:27;;;;;;;10.52;4.18;;;;;;;20.14;71.07;98666.66;4486702;31;34616;-73
2022/08/27 01:09:57;;;;;;;6.50;3.87;;;;;;;20.17;70.12;98662.97;4487265;31;32825;-73
2022/08/27 01:12:26;;;;;;;9.82;3.92;;;;;;;20.08;70.99;98667.00;4500027;31;33073;-73
2022/08/27 01:14:55;;;;;;;8.88;4.28;;;;;;;19.88;71.92;98669.06;4484775;31;35017;-73
2022/08/27 01:17:23;;;;;;;13.68;3.97;;;;;;;19.52;71.48;98665.00;4485719;32;34343;-74
2022/08/27 01:19:54;;;;;;;7.57;3.37;;;;;;;20.00;70.37;98671.94;4501292;31;32573;-74
2022/08/27 01:22:25;;;;;;;8.80;3.65;;;;;;;20.11;70.98;98673.91;4501496;31;33892;-74
2022/08/27 01:24:57;;;;;;;8.40;3.87;;;;;;;20.16;71.61;98670.03;4498944;31;33731;-73
2022/08/27 01:27:30;;;;;;;6.75;3.90;;;;;;;19.68;73.11;98670.22;4500344;31;35051;-74
2022/08/27 01:29:58;;;;;;;10.15;4.70;;;;;;;19.95;72.44;98671.34;4501289;31;33106;-74
2022/08/27 01:32:29;;;;;;;6.95;3.67;;;;;;;19.75;69.67;98672.53;4500195;31;33238;-73
2022/08/27 01:34:58;;;;;;;7.37;3.83;;;;;;;19.58;71.29;98678.78;4500590;31;34535;-74
2022/08/27 01:37:26;;;;;;;8.43;3.80;;;;;;;19.23;74.60;98681.66;4487210;31;34094;-74
2022/08/27 01:39:57;;;;;;;6.50;3.62;;;;;;;19.46;73.49;98678.53;4486645;31;33097;-73
2022/08/27 01:42:32;;;;;;;6.93;3.70;;;;;;;19.68;71.43;98677.31;4500367;31;34817;-74
2022/08/27 01:45:07;;;;;;;10.65;4.20;;;;;;;20.04;70.71;98678.72;4498038;31;36031;-74
2022/08/27 01:47:36;;;;;;;8.00;3.70;;;;;;;20.04;71.09;98676.91;4486938;31;35108;-74
2022/08/27 01:50:12;;;;;;;7.57;3.72;;;;;;;20.39;70.36;98675.72;4499707;31;33167;-73
2022/08/27 01:52:40;;;;;;;7.78;3.75;;;;;;;19.60;73.43;98682.19;4486383;31;34110;-73
2022/08/27 01:55:10;;;;;;;9.32;3.62;;;;;;;19.86;72.31;98683.31;4499818;31;35113;-74
2022/08/27 01:57:38;;;;;;;7.72;4.37;;;;;;;19.68;73.28;98685.22;4498469;31;33569;-73
2022/08/27 02:00:11;;;;;;;5.03;3.33;;;;;;;19.61;73.81;98682.09;4472375;31;32868;-74
2022/08/27 02:02:40;;;;;;;8.18;3.90;;;;;;;19.90;70.71;98684.81;4498305;31;33916;-73
2022/08/27 02:05:08;;;;;;;7.37;4.05;;;;;;;19.67;71.69;98691.44;4496683;31;33681;-74
2022/08/27 02:07:37;;;;;;;11.25;3.90;;;;;;;20.13;70.16;98690.53;4483769;32;33725;-74
2022/08/27 02:10:07;;;;;;;7.00;3.75;;;;;;;20.14;68.45;98682.50;4498768;31;33313;-74
2022/08/27 02:12:35;;;;;;;6.53;3.75;;;;;;;19.58;71.28;98684.06;4500013;31;33916;-73
2022/08/27 02:15:04;;;;;;;6.45;3.72;;;;;;;20.06;70.32;98684.75;4499778;31;35951;-74
2022/08/27 02:17:33;;;;;;;7.28;4.00;;;;;;;19.93;70.79;98683.81;4483948;32;34465;-74
2022/08/27 02:20:01;;;;;;;10.65;3.83;;;;;;;19.98;71.64;98681.75;4497857;31;33754;-74
2022/08/27 02:22:28;;;;;;;5.43;3.35;;;;;;;19.87;71.61;98680.59;4500643;31;34049;-74
2022/08/27 02:24:57;;;;;;;9.55;4.47;;;;;;;19.58;72.23;98673.50;4499915;31;34948;-73
2022/08/27 02:27:25;;;;;;;7.18;3.70;;;;;;;19.55;72.41;98678.94;4499457;31;35490;-74
2022/08/27 02:29:54;;;;;;;7.28;3.67;;;;;;;20.15;69.48;98672.78;4497979;31;32246;-74
2022/08/27 02:32:22;;;;;;;11.82;4.37;;;;;;;20.04;70.94;98670.78;4498622;31;33415;-74
2022/08/27 02:34:59;;;;;;;7.97;4.10;;;;;;;20.00;70.65;98669.28;4498465;31;34991;-74
2022/08/27 02:37:27;;;;;;;8.50;3.97;;;;;;;19.16;74.55;98667.09;4500497;31;34529;-74
2022/08/27 02:39:56;;;;;;;8.10;3.83;;;;;;;19.51;73.30;98673.00;4499596;31;33643;-73
2022/08/27 02:42:24;;;;;;;8.63;4.03;;;;;;;19.63;73.61;98666.16;4502692;31;33999;-74
2022/08/27 02:44:53;;;;;;;7.22;4.00;;;;;;;19.65;72.89;98670.41;4497415;31;35937;-72
2022/08/27 02:47:21;;;;;;;7.15;4.22;;;;;;;19.51;73.25;98665.06;4500388;31;34409;-74
2022/08/27 02:49:49;;;;;;;9.43;3.37;;;;;;;19.48;74.09;98670.53;4501630;31;34767;-74
2022/08/27 02:52:17;;;;;;;10.65;5.10;;;;;;;19.13;75.87;98668.97;4502577;31;33920;-74
2022/08/27 02:54:52;;;;;;;6.37;3.65;;;;;;;18.93;77.00;98672.72;4501722;31;35909;-74
2022/08/27 02:57:21;;;;;;;7.25;3.55;;;;;;;18.64;78.68;98674.31;4502591;31;34467;-74
2022/08/27 02:59:52;;;;;;;9.95;4.37;;;;;;;19.24;74.63;98671.00;4484741;32;33709;-74
2022/08/27 03:02:20;;;;;;;8.02;3.90;;;;;;;19.37;74.81;98665.88;4489973;31;34025;-74
2022/08/27 03:04:52;;;;;;;7.53;4.15;;;;;;;19.42;74.39;98663.81;4501040;31;34899;-74
2022/08/27 03:07:23;;;;;;;8.77;4.10;;;;;;;19.33;74.56;98659.06;4501038;31;35186;-74
2022/08/27 03:09:51;;;;;;;6.30;3.90;;;;;;;19.45;73.16;98671.56;4501795;31;33767;-73
2022/08/27 03:12:19;;;;;;;11.10;4.57;;;;;;;19.19;74.77;98672.22;4501362;31;34759;-73
2022/08/27 03:14:51;;;;;;;14.43;5.53;;;;;;;18.76;77.44;98676.28;4495802;31;34995;-73
2022/08/27 03:20:08;;;;;;;7.00;3.80;;;;;;;19.22;75.09;98672.91;4501760;31;33671;-74
2022/08/27 03:22:35;;;;;;;7.80;4.03;;;;;;;19.10;75.69;98674.44;4502446;31;33861;-74
2022/08/27 03:25:04;;;;;;;14.35;4.72;;;;;;;19.06;76.19;98678.19;4499927;31;34930;-74
2022/08/27 03:27:32;;;;;;;9.93;4.20;;;;;;;19.14;76.55;98670.66;4502288;31;35285;-74
2022/08/27 03:30:10;;;;;;;7.82;4.30;;;;;;;19.17;75.51;98674.09;4499279;31;34617;-72
2022/08/27 03:32:38;;;;;;;11.55;4.20;;;;;;;19.06;76.41;98675.56;4486830;31;34743;-74
2022/08/27 03:35:07;;;;;;;6.30;3.85;;;;;;;18.93;77.57;98678.00;4499736;31;35881;-74
2022/08/27 03:37:35;;;;;;;6.68;4.32;;;;;;;19.38;75.01;98672.88;4501135;31;34494;-73
2022/08/27 03:40:05;;;;;;;6.15;3.60;;;;;;;19.40;75.03;98676.25;4501426;31;33638;-74
2022/08/27 03:42:34;;;;;;;11.10;4.43;;;;;;;19.21;75.78;98676.47;4501147;31;34821;-74
2022/08/27 03:45:03;;;;;;;6.87;4.00;;;;;;;19.18;75.55;98670.50;4499614;31;35029;-74
2022/08/27 03:47:32;;;;;;;8.77;3.90;;;;;;;19.08;75.18;98676.31;4497962;31;34664;-74
2022/08/27 03:50:00;;;;;;;7.05;4.70;;;;;;;19.09;75.64;98666.59;4500096;31;33620;-75
2022/08/27 03:52:28;;;;;;;8.90;4.18;;;;;;;19.08;75.83;98680.75;4502436;31;33996;-74
2022/08/27 03:54:57;;;;;;;8.20;4.15;;;;;;;19.18;75.19;98679.25;4498541;31;35898;-73
2022/08/27 03:57:25;;;;;;;8.07;4.47;;;;;;;19.08;76.00;98675.47;4499624;31;34788;-74
2022/08/27 03:59:54;;;;;;;9.35;4.97;;;;;;;18.65;77.87;98676.00;4484675;31;32202;-74
2022/08/27 04:02:22;;;;;;;6.82;3.97;;;;;;;18.99;76.48;98678.59;4483108;32;33270;-75
2022/08/27 04:04:50;;;;;;;7.28;4.10;;;;;;;19.05;76.46;98679.09;4494374;31;35903;-74
2022/08/27 04:07:19;;;;;;;5.75;3.75;;;;;;;19.09;76.22;98682.44;4487001;31;33749;-74
2022/08/27 04:09:46;;;;;;;7.90;4.00;;;;;;;19.13;76.04;98681.34;4499207;31;33515;-74
2022/08/27 04:12:14;;;;;;;9.50;5.05;;;;;;;19.07;75.85;98679.03;4500675;31;33685;-74
2022/08/27 04:14:42;;;;;;;10.40;4.40;;;;;;;18.76;78.62;98673.66;4492134;31;34881;-74
2022/08/27 04:17:10;;;;;;;7.62;4.03;;;;;;;19.27;75.50;98673.47;4484872;32;34451;-73
2022/08/27 04:19:38;;;;;;;7.40;4.20;;;;;;;19.44;74.64;98667.22;4492613;31;34089;-75
2022/08/27 04:22:07;;;;;;;8.93;3.90;;;;;;;19.37;75.08;98676.44;4481690;31;34082;-76
2022/08/27 04:24:36;;;;;;;5.07;3.47;;;;;;;19.35;75.39;98667.75;4484729;31;35731;-76
2022/08/27 04:27:05;;;;;;;6.78;4.30;;;;;;;19.33;76.49;98672.28;4484762;32;34338;-74
2022/08/27 04:29:33;;;;;;;7.47;4.00;;;;;;;19.42;76.48;98679.66;4491857;31;33770;-74
2022/08/27 04:32:04;;;;;;;11.77;4.18;;;;;;;19.37;76.97;98687.00;4500640;31;34606;-73
2022/08/27 04:34:32;;;;;;;7.47;4.35;;;;;;;19.49;76.90;98683.63;4499075;31;35031;-74
2022/08/27 04:37:00;;;;;;;10.18;4.37;;;;;;;19.49;76.72;98682.81;4487068;31;34522;-74
2022/08/27 04:39:28;;;;;;;6.87;3.75;;;;;;;19.54;76.32;98677.25;4497524;31;33717;-74
2022/08/27 04:41:58;;;;;;;5.82;3.85;;;;;;;19.67;75.88;98675.59;4499573;31;33917;-73
2022/08/27 04:44:29;;;;;;;7.93;4.57;;;;;;;19.72;75.88;98680.63;4499169;31;34932;-74
2022/08/27 04:47:02;;;;;;;9.00;4.10;;;;;;;19.86;76.76;98684.16;4501838;31;35103;-74
2022/08/27 04:49:31;;;;;;;8.25;4.28;;;;;;;19.89;76.80;98678.69;4498681;31;33135;-74
2022/08/27 04:52:01;;;;;;;7.00;3.97;;;;;;;19.95;76.82;98687.22;4500861;31;33403;-74
2022/08/27 04:54:30;;;;;;;8.23;4.00;;;;;;;20.11;76.42;98680.03;4497818;31;35086;-74
2022/08/27 04:57:01;;;;;;;8.13;4.03;;;;;;;20.21;76.37;98677.72;4499106;31;34452;-73
2022/08/27 04:59:30;;;;;;;5.70;3.42;;;;;;;20.44;76.56;98679.78;4499069;31;32834;-75
2022/08/27 05:01:58;;;;;;;6.65;3.22;;;;;;;20.44;77.07;98684.22;4501202;31;34843;-74
2022/08/27 05:04:30;;;;;;;7.32;4.10;;;;;;;20.84;76.38;98679.09;4499093;31;35166;-75
2022/08/27 05:07:00;;;;;;;8.13;4.30;;;;;;;20.81;77.69;98677.50;4501873;31;35112;-74
2022/08/27 05:09:28;;;;;;;7.10;4.35;;;;;;;20.83;78.07;98685.34;4499952;31;33782;-74
2022/08/27 05:11:56;;;;;;;5.93;3.50;;;;;;;21.47;75.40;98680.34;4494438;31;33955;-74
2022/08/27 05:14:28;;;;;;;8.77;4.00;;;;;;;21.80;74.91;98681.69;4500524;31;35135;-74
2022/08/27 05:16:58;;;;;;;6.22;3.72;;;;;;;22.04;75.14;98695.09;4500503;31;35359;-75
2022/08/27 05:19:26;;;;;;;6.95;3.65;;;;;;;22.36;74.35;98683.22;4499070;31;34512;-75
2022/08/27 05:21:54;;;;;;;5.57;3.50;;;;;;;22.29;74.74;98683.69;4500605;31;33933;-75
2022/08/27 05:24:22;;;;;;;9.38;4.78;;;;;;;22.68;74.45;98688.94;4498614;31;35272;-76
2022/08/27 05:26:50;;;;;;;9.70;4.12;;;;;;;22.80;73.51;98681.87;4499011;31;34406;-75
2022/08/27 05:29:19;;;;;;;9.05;3.60;;;;;;;23.38;69.41;98692.75;4499058;31;33637;-76
2022/08/27 05:31:47;;;;;;;6.05;3.92;;;;;;;23.01;72.48;98687.47;4501464;31;34479;-75
2022/08/27 05:34:15;;;;;;;9.95;4.12;;;;;;;23.61;71.99;98691.91;4500520;31;35127;-75
2022/08/27 05:36:53;;;;;;;6.18;3.83;;;;;;;23.43;73.60;98685.31;4501444;31;34629;-75
2022/08/27 05:39:21;;;;;;;7.70;4.20;;;;;;;23.39;74.57;98683.84;4500615;31;33652;-75
2022/08/27 05:41:51;;;;;;;7.87;4.45;;;;;;;24.54;68.48;98685.72;4498948;31;34834;-77
2022/08/27 05:44:19;;;;;;;8.82;4.35;;;;;;;24.90;67.26;98685.56;4500399;31;34213;-75
2022/08/27 05:47:07;;;;;;;7.85;4.82;;;;;;;24.87;67.99;98678.69;4500483;31;34344;-73
2022/08/27 05:49:36;;;;;;;8.60;4.18;;;;;;;24.42;69.91;98691.97;4499790;31;33368;-76
2022/08/27 05:52:08;;;;;;;11.05;3.50;;;;;;;25.13;66.24;98681.91;4499987;31;33911;-76
2022/08/27 05:54:37;;;;;;;8.10;3.80;;;;;;;25.30;64.69;98691.19;4499856;31;35924;-76
2022/08/27 05:57:06;;;;;;;7.57;4.43;;;;;;;25.53;64.18;98681.28;4498716;31;34730;-76
2022/08/27 06:02:21;;;;;;;8.25;3.87;;;;;;;26.25;58.86;98677.03;4499318;31;34678;-75
2022/08/27 06:04:49;;;;;;;5.82;3.53;;;;;;;26.30;55.61;98690.84;4500840;31;35890;-76
2022/08/27 06:07:18;;;;;;;5.80;3.35;;;;;;;27.02;52.87;98689.03;4498895;31;34510;-76
2022/08/27 06:09:45;;;;;;;9.63;3.95;;;;;;;27.12;51.62;98690.87;4499856;31;33653;-76
2022/08/27 06:12:14;;;;;;;7.43;3.45;;;;;;;26.99;50.31;98691.97;4485953;31;33228;-75
2022/08/27 06:14:41;;;;;;;9.68;3.33;;;;;;;27.68;50.13;98692.09;4497728;31;35042;-76
2022/08/27 06:17:09;;;;;;;10.52;3.87;;;;;;;28.31;45.10;98689.75;4499813;31;35078;-77
2022/08/27 06:19:37;;;;;;;5.87;3.58;;;;;;;27.79;47.66;98689.25;4502670;31;32403;-77
2022/08/27 06:22:06;;;;;;;5.15;3.37;;;;;;;28.32;47.94;98701.28;4502843;31;33789;-75
2022/08/27 06:24:39;;;;;;;8.65;3.45;;;;;;;28.88;43.68;98697.72;4502118;31;34712;-75
2022/08/27 06:27:14;;;;;;;7.25;3.08;;;;;;;28.47;45.51;98699.84;4486015;31;35241;-76
2022/08/27 06:29:42;;;;;;;9.03;3.13;;;;;;;28.76;45.03;98714.13;4502633;31;33670;-77
2022/08/27 06:32:11;;;;;;;6.43;3.35;;;;;;;29.48;42.88;98709.78;4500263;31;33873;-77
2022/08/27 06:34:40;;;;;;;5.75;3.78;;;;;;;29.37;44.28;98718.06;4501927;31;33825;-83
2022/08/27 06:37:08;;;;;;;6.90;3.22;;;;;;;28.58;39.79;98711.41;4502732;31;34709;-76
2022/08/27 06:39:38;;;;;;;5.97;2.83;;;;;;;29.50;40.11;98713.97;4501777;31;33803;-76
2022/08/27 06:42:10;;;;;;;7.97;3.53;;;;;;;29.39;42.33;98716.91;4501565;31;33247;-76
2022/08/27 06:44:39;;;;;;;12.90;3.78;;;;;;;29.19;39.46;98721.56;4500186;31;35894;-79
2022/08/27 06:47:06;;;;;;;7.85;3.28;;;;;;;28.84;37.59;98716.94;4500474;31;34480;-76
2022/08/27 06:49:38;;;;;;;9.73;3.33;;;;;;;29.72;38.54;98719.03;4500825;31;34388;-76
2022/08/27 06:52:07;;;;;;;6.05;3.20;;;;;;;30.12;34.38;98728.47;4501533;31;34810;-76
2022/08/27 06:54:35;;;;;;;8.15;2.80;;;;;;;30.04;35.84;98721.19;4499913;31;35737;-76
2022/08/27 06:57:03;;;;;;;5.57;3.25;;;;;;;29.98;38.26;98717.28;4501328;31;34382;-76
2022/08/27 06:59:32;;;;;;;6.80;3.40;;;;;;;30.17;34.99;98723.47;4501863;31;33530;-76
2022/08/27 07:02:00;;;;;;;7.00;2.92;;;;;;;30.35;33.39;98728.81;4500290;31;33901;-76
2022/08/27 07:04:27;;;;;;;8.13;3.53;;;;;;;30.70;34.53;98722.47;4499816;31;35055;-77
2022/08/27 07:07:01;;;;;;;7.70;3.40;;;;;;;30.59;34.68;98725.44;4500421;31;33695;-76
2022/08/27 07:09:31;;;;;;;8.10;3.50;;;;;;;30.05;35.54;98721.06;4499803;31;33734;-76
2022/08/27 07:12:00;;;;;;;6.28;3.53;;;;;;;31.08;36.38;98727.53;4501118;31;34126;-76
2022/08/27 07:14:29;;;;;;;6.10;3.12;;;;;;;32.04;30.31;98726.19;4500151;31;35870;-76
2022/08/27 07:17:05;;;;;;;7.37;3.47;;;;;;;32.17;33.63;98733.78;4501654;31;35415;-76
2022/08/27 07:19:37;;;;;;;12.07;3.85;;;;;;;32.29;34.30;98743.19;4499126;31;33652;-76
2022/08/27 07:22:07;;;;;;;7.72;3.22;;;;;;;32.44;34.28;98748.72;4502366;31;35513;-76
2022/08/27 07:24:36;;;;;;;7.15;3.22;;;;;;;32.12;33.31;98750.47;4501765;31;35907;-76
2022/08/27 07:27:05;;;;;;;6.37;3.35;;;;;;;32.28;33.17;98750.44;4502410;31;34650;-76
2022/08/27 07:29:34;;;;;;;6.43;3.47;;;;;;;30.39;35.09;98747.16;4499733;31;34385;-76
2022/08/27 07:32:02;;;;;;;7.47;3.28;;;;;;;31.38;33.22;98750.31;4501177;31;34805;-76
2022/08/27 07:34:30;;;;;;;9.50;3.50;;;;;;;31.61;33.31;98749.69;4500485;31;35093;-76
2022/08/27 07:36:58;;;;;;;6.68;3.30;;;;;;;31.47;33.97;98746.62;4487307;31;33659;-76
2022/08/27 07:39:26;;;;;;;6.32;3.45;;;;;;;31.80;32.33;98749.38;4501444;31;33662;-76
2022/08/27 07:44:42;;;;;;;5.82;3.08;;;;;;;32.28;30.84;98749.59;4499727;31;35800;-76
2022/08/27 07:47:11;;;;;;;9.38;5.18;;;;;;;32.37;33.18;98750.41;4500133;31;34559;-76
2022/08/27 07:49:39;;;;;;;10.00;4.05;;;;;;;32.67;34.85;98757.78;4500456;31;33525;-77
2022/08/27 07:52:07;;;;;;;4.87;3.00;;;;;;;32.11;33.33;98754.16;4499966;31;34256;-77
2022/08/27 07:54:36;;;;;;;6.05;2.97;;;;;;;32.39;34.43;98746.53;4487009;31;34230;-77
2022/08/27 07:57:04;;;;;;;8.07;2.95;;;;;;;33.09;32.10;98752.25;4500924;31;34459;-77
2022/08/27 07:59:32;;;;;;;6.82;3.20;;;;;;;32.63;31.56;98748.38;4499779;31;33753;-77
2022/08/27 08:02:00;;;;;;;6.00;2.72;;;;;;;32.45;32.62;98742.31;4500974;31;33244;-76
2022/08/27 08:04:28;;;;;;;10.65;3.25;;;;;;;32.76;31.79;98744.31;4498770;31;35939;-76
2022/08/27 08:06:56;;;;;;;6.35;3.40;;;;;;;32.67;28.33;98747.00;4493401;31;34702;-76
2022/08/27 08:09:24;;;;;;;5.03;2.95;;;;;;;33.05;27.87;98747.19;4494212;31;35047;-78
2022/08/27 08:11:52;;;;;;;5.37;3.30;;;;;;;32.92;30.30;98757.72;4501955;31;33755;-76
2022/08/27 08:14:21;;;;;;;8.25;3.33;;;;;;;32.76;30.62;98752.38;4500992;31;35082;-76
2022/08/27 08:16:49;;;;;;;6.78;3.22;;;;;;;33.48;28.32;98752.25;4500845;31;34401;-76
2022/08/27 08:19:17;;;;;;;6.72;3.10;;;;;;;32.87;30.37;98757.41;4499649;31;33511;-76
2022/08/27 08:21:45;;;;;;;12.23;3.45;;;;;;;33.67;29.23;98756.34;4501240;31;33935;-76
2022/08/27 08:24:13;;;;;;;5.28;2.75;;;;;;;33.92;27.92;98758.87;4500327;31;36005;-77
2022/08/27 08:26:41;;;;;;;9.05;3.72;;;;;;;33.65;28.21;98755.66;4500795;31;35153;-77
2022/08/27 08:29:09;;;;;;;6.82;3.28;;;;;;;33.22;31.79;98756.09;4500976;31;33557;-77
2022/08/27 08:31:45;;;;;;;6.05;2.90;;;;;;;33.17;28.26;98753.06;4501909;31;33782;-76
2022/08/27 08:34:18;;;;;;;8.20;3.30;;;;;;;34.69;28.27;98755.12;4499457;31;34895;-76
2022/08/27 08:36:47;;;;;;;4.45;2.83;;;;;;;34.70;27.65;98762.25;4498929;31;34518;-76
2022/08/27 08:39:22;;;;;;;5.20;3.35;;;;;;;33.59;29.00;98754.53;4500905;31;33599;-77
2022/08/27 08:41:53;;;;;;;7.40;2.83;;;;;;;34.55;29.25;98756.81;4501001;31;34737;-76
2022/08/27 08:44:40;;;;;;;7.18;2.97;;;;;;;33.32;28.21;98763.97;4498995;31;35392;-77
2022/08/27 08:47:13;;;;;;;6.93;2.95;;;;;;;33.70;29.37;98758.69;4499723;31;34439;-76
2022/08/27 08:49:52;;;;;;;4.87;2.92;;;;;;;35.38;27.35;98759.41;4498399;31;34574;-76
2022/08/27 08:52:27;;;;;;;12.05;3.17;;;;;;;35.09;28.40;98753.00;4501853;31;33956;-76
2022/08/27 08:55:02;;;;;;;6.65;3.20;;;;;;;33.97;28.34;98756.47;4498118;31;34967;-77
2022/08/27 08:57:37;;;;;;;4.50;3.05;;;;;;;33.67;31.68;98756.34;4484764;32;33073;-77
2022/08/27 09:00:10;;;;;;;;;;;;;;;33.67;27.31;98756.34;4496724;31;33576;-76
2022/08/27 09:02:43;;;;;;;7.80;3.45;;;;;;;34.21;31.84;98751.91;4501856;31;34310;-76
2022/08/27 09:05:11;;;;;;;9.68;3.30;;;;;;;34.19;28.23;98757.50;4499191;31;35094;-76
2022/08/27 09:07:54;;;;;;;14.32;3.40;;;;;;;33.88;28.39;98758.37;4499998;31;34481;-78
2022/08/27 09:10:46;;;;;;;6.35;3.10;;;;;;;35.19;30.70;98750.84;4501282;31;34592;-77
2022/08/27 09:13:25;;;;;;;7.32;3.53;;;;;;;33.89;28.98;98754.69;4501481;31;34841;-76
2022/08/27 09:15:57;;;;;;;5.85;2.70;;;;;;;34.58;28.81;98752.91;4500409;31;34914;-77
2022/08/27 09:18:26;;;;;;;8.82;3.30;;;;;;;35.35;26.60;98748.94;4501547;31;34698;-76
2022/08/27 09:21:05;;;;;;;6.70;3.30;;;;;;;34.75;28.42;98749.03;4491474;31;33786;-77
2022/08/27 09:24:00;;;;;;;9.60;3.33;;;;;;;34.44;27.94;98743.75;4486228;31;34707;-76
2022/08/27 09:26:30;;;;;;;8.80;3.35;;;;;;;34.88;29.70;98741.06;4500427;31;35914;-76
2022/08/27 09:29:15;;;;;;;8.57;2.90;;;;;;;34.73;27.22;98748.34;4498069;31;34523;-76
2022/08/27 09:31:48;;;;;;;4.15;2.90;;;;;;;35.94;29.49;98737.91;4500527;31;33588;-76
2022/08/27 09:34:16;;;;;;;3.90;2.75;;;;;;;35.65;27.37;98739.72;4500561;31;33937;-77
2022/08/27 09:37:00;;;;;;;9.13;3.05;;;;;;;34.26;26.33;98738.69;4501374;31;34945;-77
2022/08/27 09:39:49;;;;;;;10.73;3.22;;;;;;;34.97;28.52;98736.41;4486823;31;33832;-77
2022/08/27 09:42:28;;;;;;;6.60;2.80;;;;;;;34.96;29.40;98736.59;4498927;31;33838;-77
2022/08/27 09:44:57;;;;;;;16.87;3.20;;;;;;;33.43;28.68;98741.16;4500345;31;33510;-77
2022/08/27 09:47:25;;;;;;;6.00;2.90;;;;;;;32.89;29.35;98744.56;4499740;31;35135;-77
2022/08/27 09:50:06;;;;;;;5.32;3.12;;;;;;;34.37;28.75;98739.06;4497904;31;35102;-77
2022/08/27 09:52:49;;;;;;;6.00;3.08;;;;;;;34.00;29.59;98745.31;4501229;31;33625;-77
2022/08/27 09:55:39;;;;;;;5.60;3.17;;;;;;;33.26;32.32;98740.38;4500436;31;33892;-77
2022/08/27 09:58:16;;;;;;;5.62;3.10;;;;;;;33.53;28.13;98738.19;4499063;31;35087;-77
2022/08/27 10:00:46;;;;;;;6.12;3.87;;;;;;;32.98;29.69;98735.44;4497667;31;34614;-77
2022/08/27 10:03:14;;;;;;;7.47;3.08;;;;;;;33.23;27.60;98735.34;4501068;31;33542;-76
2022/08/27 10:05:43;;;;;;;9.43;2.50;;;;;;;34.77;26.45;98732.59;4500180;31;34796;-76
2022/08/27 10:08:27;;;;;;;11.57;2.92;;;;;;;34.93;28.25;98738.66;4501004;31;35095;-76
2022/08/27 10:10:58;;;;;;;6.37;2.25;;;;;;;34.62;25.03;98735.28;4484018;32;34891;-76
2022/08/27 10:13:50;;;;;;;5.10;1.95;;;;;;;35.43;24.38;98736.13;4486032;31;33848;-77
2022/08/27 10:16:27;;;;;;;5.82;2.50;;;;;;;35.03;23.76;98729.38;4484835;31;34034;-76
2022/08/27 10:19:19;;;;;;;4.72;2.70;;;;;;;36.02;22.58;98728.78;4498665;31;35301;-77
2022/08/27 10:22:06;;;;;;;5.55;2.65;;;;;;;36.32;28.05;98734.94;4500840;31;34494;-76
2022/08/27 10:24:34;;;;;;;7.40;2.12;;;;;;;36.65;23.82;98739.72;4500058;31;34474;-77
2022/08/27 10:27:24;;;;;;;6.68;3.08;;;;;;;36.44;26.46;98738.75;4500721;31;33578;-76
2022/08/27 10:29:59;;;;;;;9.20;2.92;;;;;;;34.37;27.13;98735.53;4499091;31;35302;-78
2022/08/27 10:32:50;;;;;;;4.85;3.17;;;;;;;35.06;28.77;98739.84;4486377;31;35327;-77
2022/08/27 10:35:37;;;;;;;8.07;2.92;;;;;;;34.81;27.21;98737.44;4489169;31;34361;-78
2022/08/27 10:38:40;;;;;;;11.32;3.55;;;;;;;34.82;30.41;98740.97;4499630;31;33904;-78
2022/08/27 10:41:46;;;;;;;5.10;2.42;;;;;;;36.08;26.56;98740.75;4500611;31;35917;-77
2022/08/27 10:44:41;;;;;;;4.62;2.60;;;;;;;34.90;28.21;98736.31;4461605;31;35051;-77
2022/08/27 10:47:25;;;;;;;4.37;2.72;;;;;;;36.47;26.60;98734.81;4491723;31;33638;-76
2022/08/27 10:50:19;;;;;;;6.75;2.45;;;;;;;36.94;25.01;98732.34;4499661;31;34151;-77
2022/08/27 10:52:51;;;;;;;7.62;3.37;;;;;;;36.70;23.21;98726.41;4500444;31;35954;-76
2022/08/27 10:55:27;;;;;;;13.38;3.08;;;;;;;36.86;24.70;98724.41;4499537;31;34427;-76
2022/08/27 10:58:21;;;;;;;10.40;2.90;;;;;;;35.50;24.90;98725.38;4486320;31;32117;-76
2022/08/27 11:01:08;;;;;;;7.47;3.70;;;;;;;35.47;24.11;98709.50;4499581;31;33931;-77
2022/08/27 11:03:48;;;;;;;9.90;3.20;;;;;;;36.21;24.57;98717.31;4486422;31;35159;-77
2022/08/27 11:06:51;;;;;;;6.15;3.15;;;;;;;36.57;24.17;98723.62;4480139;31;35239;-77
2022/08/27 11:09:29;;;;;;;8.10;2.75;;;;;;;37.74;23.49;98719.91;4488895;31;34398;-77
2022/08/27 11:12:01;;;;;;;10.07;2.80;;;;;;;36.63;27.52;98714.66;4501235;31;34117;-76
2022/08/27 11:14:57;;;;;;;8.40;2.87;;;;;;;37.06;26.27;98713.63;4501804;31;35987;-77
2022/08/27 11:17:30;;;;;;;6.35;2.95;;;;;;;37.75;24.43;98708.00;4500187;31;34710;-77
2022/08/27 11:20:08;;;;;;;10.88;3.58;;;;;;;37.51;25.42;98709.41;4501000;31;33641;-77
2022/08/27 11:22:46;;;;;;;6.65;2.92;;;;;;;36.96;23.81;98712.13;4501651;31;34878;-77
2022/08/27 11:25:38;;;;;;;6.50;3.20;;;;;;;37.55;24.93;98712.53;4498360;31;35947;-77
2022/08/27 11:28:07;;;;;;;8.60;3.05;;;;;;;36.03;23.72;98711.50;4502349;31;34380;-76
2022/08/27 11:30:51;;;;;;;14.65;3.03;;;;;;;36.87;25.10;98704.34;4487579;31;32046;-77
2022/08/27 11:33:22;;;;;;;6.80;2.87;;;;;;;37.55;23.09;98701.69;4484393;32;33116;-76
2022/08/27 11:35:50;;;;;;;8.30;2.85;;;;;;;37.06;25.13;98703.59;4498391;31;34621;-77
2022/08/27 11:38:28;;;;;;;8.25;3.55;;;;;;;37.27;25.57;98710.81;4502247;31;34392;-76
2022/08/27 11:41:01;;;;;;;9.70;3.00;;;;;;;36.93;25.81;98707.09;4501575;31;33718;-76
2022/08/27 11:43:33;;;;;;;7.90;2.92;;;;;;;37.27;24.73;98707.25;4502435;31;34372;-77
2022/08/27 11:46:07;;;;;;;6.75;3.28;;;;;;;37.40;26.74;98701.88;4501393;31;35868;-76
2022/08/27 11:48:39;;;;;;;10.30;3.35;;;;;;;37.25;26.29;98699.31;4501282;31;35366;-77
2022/08/27 11:51:07;;;;;;;7.85;2.80;;;;;;;37.07;25.66;98697.16;4499712;31;34093;-77
2022/08/27 11:53:41;;;;;;;10.30;3.45;;;;;;;36.99;26.04;98687.31;4501313;31;33910;-77
2022/08/27 11:56:35;;;;;;;5.43;3.15;;;;;;;37.70;26.58;98686.06;4501149;31;35192;-76
2022/08/27 11:59:29;;;;;;;8.70;3.00;;;;;;;36.53;26.99;98676.22;4500395;31;34518;-76
2022/08/27 12:02:11;;;;;;;8.40;3.08;;;;;;;36.53;23.12;98678.91;4501007;31;33510;-76
2022/08/27 12:04:41;;;;;;;8.57;3.03;;;;;;;36.14;24.48;98677.59;4485089;31;33864;-76